This is the latest recevied weather packets stored in our database for station/object WX6YYZ. If no packets are shown the sender has not sent any weather packets the latest 10 day(s).
| Time | Temp. | Humidity | Pressure | Rain* | Wind** | Luminosity | Snow |
|---|---|---|---|---|---|---|---|
| 1777165338 | 13.89° C | 74% | 1011.9 hPa | 0 mm | - | - | - |
| 1777165037 | 13.89° C | 72% | 1011.9 hPa | 0 mm | - | - | - |
| 1777163834 | 14.44° C | 68% | 1011.9 hPa | 0 mm | - | - | - |
| 1777162932 | 15° C | 67% | 1011.5 hPa | 0 mm | - | - | - |
| 1777162631 | 15° C | 66% | 1011.5 hPa | 0 mm | - | - | - |
| 1777161096 | 15.56° C | 64% | 1011.2 hPa | 0 mm | - | - | - |
| 1777160795 | 15.56° C | 64% | 1011.2 hPa | 0 mm | - | - | - |
| 1777158927 | 17.22° C | 59% | 1011.2 hPa | 0 mm | - | - | - |
| 1777157057 | 18.33° C | 54% | 1010.8 hPa | 0 mm | - | - | - |
| 1777156455 | 18.89° C | 54% | 1010.8 hPa | 0 mm | - | - | - |
| 1777155853 | 19.44° C | 52% | 1010.8 hPa | 0 mm | - | - | - |
| 1777155252 | 20° C | 51% | 1010.5 hPa | 0 mm | - | - | - |
| 1777154348 | 19.44° C | 53% | 1010.8 hPa | 0 mm | - | - | - |
| 1777154047 | 19.44° C | 50% | 1010.8 hPa | 0 mm | - | - | - |
| 1777149407 | 18.89° C | 56% | 1011.5 hPa | 0 mm | - | - | - |
| 1777148472 | 19.44° C | 56% | 1011.9 hPa | 0 mm | - | - | - |
| 1777145336 | 19.44° C | 54% | 1012.2 hPa | 0 mm | - | - | - |
| 1777144704 | 19.44° C | 54% | 1012.2 hPa | 0 mm | - | - | - |
| 1777144103 | 18.33° C | 57% | 1012.5 hPa | 0 mm | - | - | - |
| 1777140365 | 17.78° C | 66% | 1012.9 hPa | 0 mm | - | - | - |
| 1777140064 | 17.22° C | 67% | 1013.2 hPa | 0 mm | - | - | - |
| 1777139462 | 16.67° C | 71% | 1013.2 hPa | 0 mm | - | - | - |
| 1777139162 | 16.11° C | 71% | 1013.2 hPa | 0 mm | - | - | - |
| 1777137657 | 15° C | 76% | 1013.2 hPa | 0 mm | - | - | - |
| 1777136391 | 15.56° C | 74% | 1013.5 hPa | 0 mm | - | - | - |
* Rain latest hour (hover to see other rain measurements)
** Current wind speed in m/s (hover to see current wind gust speed)